createdAt,value
2023-04-15T00:00:56.406Z,97539.34
2023-04-15T00:03:23.681Z,97543.63
2023-04-15T00:05:50.223Z,97552.97
2023-04-15T00:08:16.855Z,97540.84
2023-04-15T00:10:43.313Z,97545.22
2023-04-15T00:13:09.796Z,97545.97
2023-04-15T00:15:36.248Z,97549.06
2023-04-15T00:18:02.664Z,97555.66
2023-04-15T00:20:29.129Z,97555.09
2023-04-15T00:22:56.036Z,97553.88
2023-04-15T00:25:22.735Z,97545.47
2023-04-15T00:27:51.479Z,97548.09
2023-04-15T00:30:18.045Z,97547.28
2023-04-15T00:32:44.479Z,97560.03
2023-04-15T00:35:10.941Z,97567.69
2023-04-15T00:37:37.646Z,97565.84
2023-04-15T00:40:04.105Z,97569.94
2023-04-15T00:42:30.796Z,97572.72
2023-04-15T00:44:57.549Z,97580.28
2023-04-15T00:47:24.123Z,97580.75
2023-04-15T00:49:50.893Z,97582.72
2023-04-15T00:52:17.369Z,97573.03
2023-04-15T00:54:43.864Z,97582.06
2023-04-15T00:57:10.296Z,97575.75
2023-04-15T00:59:36.735Z,97580.88
2023-04-15T01:02:03.432Z,97582.63
2023-04-15T01:04:30.565Z,97593.56
2023-04-15T01:06:57.337Z,97580.22
2023-04-15T01:09:23.749Z,97588.31
2023-04-15T01:11:50.242Z,97591.44
2023-04-15T01:14:16.837Z,97594.31
2023-04-15T01:16:43.655Z,97596.59
2023-04-15T01:19:10.096Z,97594.63
2023-04-15T01:21:36.505Z,97598.19
2023-04-15T01:24:03.419Z,97602.97
2023-04-15T01:26:29.987Z,97610.31
2023-04-15T01:28:56.513Z,97612.75
2023-04-15T01:31:24.355Z,97607.88
2023-04-15T01:33:50.805Z,97605.16
2023-04-15T01:36:17.284Z,97604.63
2023-04-15T01:38:43.680Z,97608.88
2023-04-15T01:41:10.107Z,97612.44
2023-04-15T01:43:36.529Z,97614.28
2023-04-15T01:46:03.291Z,97611.06
2023-04-15T01:48:32.169Z,97618.97
2023-04-15T01:51:00.669Z,97615.97
2023-04-15T01:53:27.090Z,97619.03
2023-04-15T01:55:53.567Z,97622.88
2023-04-15T01:58:20.986Z,97616.53
2023-04-15T02:00:47.431Z,97616.75
2023-04-15T02:03:13.996Z,97619.91
2023-04-15T02:05:40.510Z,97620.09
2023-04-15T02:08:09.449Z,97620.34
2023-04-15T02:10:35.933Z,97624.78
2023-04-15T02:13:02.343Z,97628.41
2023-04-15T02:15:28.967Z,97624.88
2023-04-15T02:17:55.539Z,97628.06
2023-04-15T02:20:22.378Z,97630.94
2023-04-15T02:22:49.106Z,97626.81
2023-04-15T02:25:15.747Z,97636.72
2023-04-15T02:27:42.194Z,97639.34
2023-04-15T02:30:08.807Z,97639.50
2023-04-15T02:32:35.296Z,97638.53
2023-04-15T02:35:01.946Z,97640.03
2023-04-15T02:37:28.403Z,97642.97
2023-04-15T02:39:55.165Z,97641.19
2023-04-15T02:42:22.100Z,97643.13
2023-04-15T02:44:48.580Z,97642.56
2023-04-15T02:47:15.055Z,97646.59
2023-04-15T02:49:41.624Z,97645.00
2023-04-15T02:52:08.127Z,97641.28
2023-04-15T02:54:34.541Z,97654.34
2023-04-15T02:57:01.014Z,97646.81
2023-04-15T02:59:27.716Z,97647.91
2023-04-15T03:01:54.411Z,97644.91
2023-04-15T03:04:20.989Z,97651.47
2023-04-15T03:06:47.533Z,97652.50
2023-04-15T03:09:14.001Z,97651.16
2023-04-15T03:11:40.536Z,97655.19
2023-04-15T03:14:07.078Z,97657.03
2023-04-15T03:16:33.511Z,97657.88
2023-04-15T03:19:00.219Z,97660.50
2023-04-15T03:21:26.771Z,97669.00
2023-04-15T03:23:53.262Z,97660.03
2023-04-15T03:26:19.711Z,97663.06
2023-04-15T03:28:48.419Z,97665.09
2023-04-15T03:31:14.922Z,97665.16
2023-04-15T03:33:41.353Z,97671.91
2023-04-15T03:36:08.210Z,97666.47
2023-04-15T03:38:34.732Z,97674.53
2023-04-15T03:41:01.164Z,97680.13
2023-04-15T03:43:28.564Z,97678.09
2023-04-15T03:45:55.009Z,97677.75
2023-04-15T03:48:21.647Z,97679.59
2023-04-15T03:50:48.321Z,97674.03
2023-04-15T03:53:14.787Z,97675.38
2023-04-15T03:55:41.749Z,97670.47
2023-04-15T03:58:08.380Z,97674.50
2023-04-15T04:00:34.869Z,97679.72
2023-04-15T04:03:02.032Z,97682.16
2023-04-15T04:05:28.665Z,97688.91
2023-04-15T04:07:55.099Z,97684.97
2023-04-15T04:10:21.502Z,97685.50
2023-04-15T04:12:47.901Z,97689.53
2023-04-15T04:15:14.345Z,97698.28
2023-04-15T04:17:40.944Z,97703.69
2023-04-15T04:20:07.709Z,97703.94
2023-04-15T04:22:34.391Z,97700.41
2023-04-15T04:25:00.782Z,97709.09
2023-04-15T04:27:27.419Z,97706.13
2023-04-15T04:29:54.869Z,97708.16
2023-04-15T04:32:21.534Z,97715.22
2023-04-15T04:34:48.353Z,97720.28
2023-04-15T04:37:14.778Z,97716.81
2023-04-15T04:39:41.466Z,97729.88
2023-04-15T04:42:08.127Z,97731.47
2023-04-15T04:44:34.692Z,97734.94
2023-04-15T04:47:02.095Z,97741.66
2023-04-15T04:49:28.641Z,97732.22
2023-04-15T04:51:55.035Z,97744.19
2023-04-15T04:54:21.509Z,97743.25
2023-04-15T04:56:47.975Z,97741.34
2023-04-15T04:59:14.840Z,97739.59
2023-04-15T05:01:41.604Z,97744.88
2023-04-15T05:04:08.988Z,97746.22
2023-04-15T05:06:35.630Z,97747.16
2023-04-15T05:09:02.422Z,97744.63
2023-04-15T05:11:29.306Z,97744.63
2023-04-15T05:13:55.726Z,97740.00
2023-04-15T05:16:22.232Z,97738.53
2023-04-15T05:18:48.812Z,97740.41
2023-04-15T05:21:15.417Z,97748.81
2023-04-15T05:23:41.949Z,97743.31
2023-04-15T05:26:08.350Z,97752.94
2023-04-15T05:28:35.221Z,97749.81
2023-04-15T05:31:01.684Z,97751.84
2023-04-15T05:33:30.258Z,97760.53
2023-04-15T05:35:57.883Z,97763.81
2023-04-15T05:38:24.312Z,97769.03
2023-04-15T05:40:51.057Z,97763.81
2023-04-15T05:43:17.723Z,97765.19
2023-04-15T05:45:44.978Z,97768.88
2023-04-15T05:48:11.468Z,97769.03
2023-04-15T05:50:38.556Z,97770.47
2023-04-15T05:53:05.016Z,97767.53
2023-04-15T05:55:31.454Z,97774.84
2023-04-15T05:57:57.891Z,97765.31
2023-04-15T06:00:24.375Z,97775.88
2023-04-15T06:02:50.954Z,97774.63
2023-04-15T06:05:17.399Z,97783.03
2023-04-15T06:07:44.212Z,97777.53
2023-04-15T06:10:11.370Z,97782.41
2023-04-15T06:12:37.843Z,97788.38
2023-04-15T06:15:04.297Z,97789.31
2023-04-15T06:17:30.859Z,97786.72
2023-04-15T06:19:57.312Z,97788.50
2023-04-15T06:22:26.084Z,97787.28
2023-04-15T06:24:52.498Z,97790.72
2023-04-15T06:27:19.124Z,97784.84
2023-04-15T06:29:45.594Z,97797.16
2023-04-15T06:32:12.140Z,97800.13
2023-04-15T06:34:38.623Z,97800.53
2023-04-15T06:37:06.303Z,97795.22
2023-04-15T06:39:32.890Z,97798.31
2023-04-15T06:41:59.368Z,97798.59
2023-04-15T06:44:25.786Z,97801.84
2023-04-15T06:46:52.322Z,97803.72
2023-04-15T06:49:18.736Z,97803.22
2023-04-15T06:51:45.209Z,97809.13
2023-04-15T06:54:11.631Z,97808.59
2023-04-15T06:56:39.399Z,97808.88
2023-04-15T06:59:05.850Z,97811.94
2023-04-15T07:01:32.411Z,97812.88
2023-04-15T07:03:58.910Z,97822.41
2023-04-15T07:06:25.476Z,97817.38
2023-04-15T07:08:52.122Z,97816.25
2023-04-15T07:11:18.486Z,97821.00
2023-04-15T07:13:47.023Z,97822.69
2023-04-15T07:16:13.827Z,97831.03
2023-04-15T07:18:40.428Z,97821.13
2023-04-15T07:21:07.805Z,97828.78
2023-04-15T07:23:34.269Z,97829.63
2023-04-15T07:26:00.802Z,97835.69
2023-04-15T07:28:27.214Z,97828.78
2023-04-15T07:30:53.697Z,97829.16
2023-04-15T07:33:20.335Z,97832.06
2023-04-15T07:35:46.820Z,97833.00
2023-04-15T07:38:13.971Z,97840.00
2023-04-15T07:40:40.593Z,97837.59
2023-04-15T07:43:07.076Z,97845.63
2023-04-15T07:45:33.498Z,97846.84
2023-04-15T07:48:00.452Z,97852.00
2023-04-15T07:50:26.909Z,97845.06
2023-04-15T07:52:53.432Z,97844.44
2023-04-15T07:55:19.981Z,97852.56
2023-04-15T07:57:46.467Z,97846.94
2023-04-15T08:00:13.020Z,97848.28
2023-04-15T08:02:40.492Z,97856.88
2023-04-15T08:05:07.124Z,97853.69
2023-04-15T08:07:34.120Z,97856.59
2023-04-15T08:10:00.581Z,97854.38
2023-04-15T08:12:27.213Z,97860.25
2023-04-15T08:14:53.693Z,97860.91
2023-04-15T08:17:20.288Z,97867.28
2023-04-15T08:19:47.757Z,97866.44
2023-04-15T08:22:17.784Z,97868.00
2023-04-15T08:24:46.304Z,97870.50
2023-04-15T08:27:15.068Z,97865.06
2023-04-15T08:29:42.585Z,97863.19
2023-04-15T08:32:09.029Z,97868.81
2023-04-15T08:34:35.448Z,97872.19
2023-04-15T08:37:04.005Z,97878.47
2023-04-15T08:39:31.484Z,97879.97
2023-04-15T08:41:58.018Z,97885.94
2023-04-15T08:44:24.480Z,97884.56
2023-04-15T08:46:51.934Z,97889.06
2023-04-15T08:49:18.803Z,97888.28
2023-04-15T08:51:45.201Z,97897.28
2023-04-15T08:54:11.736Z,97896.63
2023-04-15T08:56:38.470Z,97900.38
2023-04-15T08:59:06.187Z,97898.59
2023-04-15T09:01:33.018Z,97903.47
2023-04-15T09:03:59.681Z,97900.84
2023-04-15T09:06:26.177Z,97895.44
2023-04-15T09:08:54.281Z,97902.75
2023-04-15T09:11:21.230Z,97904.78
2023-04-15T09:13:47.911Z,97908.50
2023-04-15T09:16:14.509Z,97912.66
2023-04-15T09:18:41.090Z,97915.91
2023-04-15T09:21:07.923Z,97915.06
2023-04-15T09:23:34.601Z,97919.38
2023-04-15T09:26:01.008Z,97919.00
2023-04-15T09:28:27.731Z,97920.31
2023-04-15T09:30:54.180Z,97921.53
2023-04-15T09:33:20.628Z,97926.13
2023-04-15T09:35:47.091Z,97928.00
2023-04-15T09:38:13.806Z,97932.69
2023-04-15T09:40:40.250Z,97932.31
2023-04-15T09:43:06.765Z,97939.72
2023-04-15T09:45:33.370Z,97926.59
2023-04-15T09:48:00.122Z,97924.63
2023-04-15T09:50:29.039Z,97931.16
2023-04-15T09:52:55.544Z,97942.03
2023-04-15T09:55:22.003Z,97937.25
2023-04-15T09:57:48.504Z,97938.69
2023-04-15T10:00:17.414Z,97945.41
2023-04-15T10:02:44.049Z,97942.78
2023-04-15T10:05:10.722Z,97937.34
2023-04-15T10:07:37.145Z,97945.56
2023-04-15T10:10:03.884Z,97950.91
2023-04-15T10:12:30.520Z,97958.09
2023-04-15T10:14:57.340Z,97954.31
2023-04-15T10:17:23.812Z,97955.59
2023-04-15T10:19:50.392Z,97961.06
2023-04-15T10:22:16.940Z,97962.38
2023-04-15T10:24:43.369Z,97967.84
2023-04-15T10:27:09.845Z,97963.91
2023-04-15T10:29:36.231Z,97973.19
2023-04-15T10:32:02.689Z,97976.41
2023-04-15T10:34:29.094Z,97974.31
2023-04-15T10:36:55.760Z,97977.59
2023-04-15T10:39:22.140Z,97981.34
2023-04-15T10:41:48.572Z,97987.44
2023-04-15T10:44:15.007Z,97980.31
2023-04-15T10:46:41.461Z,97975.00
2023-04-15T10:49:07.939Z,97977.53
2023-04-15T10:51:34.331Z,97974.22
2023-04-15T10:54:01.170Z,97981.91
2023-04-15T10:56:28.029Z,97983.03
2023-04-15T11:30:35.681Z,98006.53
2023-04-15T11:33:02.691Z,98007.22
2023-04-15T11:35:29.371Z,98010.88
2023-04-15T11:37:55.846Z,98006.66
2023-04-15T11:40:22.318Z,98011.78
2023-04-15T11:42:49.999Z,98015.81
2023-04-15T11:45:17.006Z,98014.88
2023-04-15T11:47:43.657Z,98014.97
2023-04-15T11:50:10.163Z,98021.06
2023-04-15T11:52:36.615Z,98022.28
2023-04-15T11:55:03.120Z,98015.81
2023-04-15T11:57:29.588Z,98020.97
2023-04-15T11:59:56.242Z,98022.56
2023-04-15T14:28:28.460Z,98115.63
2023-04-15T14:30:55.097Z,98120.78
2023-04-15T14:33:21.705Z,98129.34
2023-04-15T14:35:48.174Z,98132.09
2023-04-15T14:38:14.988Z,98128.44
2023-04-15T14:40:44.834Z,98140.13
2023-04-15T14:43:11.353Z,98142.69
2023-04-15T14:45:39.477Z,98143.25
2023-04-15T14:48:08.703Z,98147.94
2023-04-15T14:50:35.476Z,98144.16
2023-04-15T14:53:02.856Z,98148.00
2023-04-15T14:55:32.235Z,98149.94
2023-04-15T14:57:59.021Z,98153.72
2023-04-15T15:00:25.502Z,98155.56
2023-04-15T15:02:52.235Z,98168.50
2023-04-15T15:05:19.502Z,98167.13
2023-04-15T15:07:46.378Z,98175.03
2023-04-15T15:10:13.440Z,98171.84
2023-04-15T15:12:40.084Z,98173.53
2023-04-15T15:15:15.612Z,98185.06
2023-04-15T15:17:53.322Z,98184.16
2023-04-15T15:20:21.874Z,98181.41
2023-04-15T15:22:48.451Z,98183.66
2023-04-15T15:25:15.270Z,98182.06
2023-04-15T15:27:41.818Z,98197.84
2023-04-15T15:30:10.300Z,98190.50
2023-04-15T15:32:39.894Z,98194.06
2023-04-15T15:35:06.827Z,98185.25
2023-04-15T15:37:33.879Z,98197.81
2023-04-15T15:40:00.618Z,98201.56
2023-04-15T15:42:27.387Z,98203.25
2023-04-15T15:44:53.899Z,98204.00
2023-04-15T15:47:20.480Z,98202.69
2023-04-15T15:49:47.025Z,98208.31
2023-04-15T15:52:13.471Z,98207.28
2023-04-15T15:54:40.089Z,98200.84
2023-04-15T15:57:06.656Z,98214.00
2023-04-15T15:59:34.266Z,98208.91
2023-04-15T16:02:03.092Z,98215.50
2023-04-15T16:04:30.353Z,98216.81
2023-04-15T16:06:57.101Z,98216.84
2023-04-15T16:46:17.771Z,98259.19
2023-04-15T16:48:44.594Z,98260.63
2023-04-15T16:51:20.473Z,98270.63
2023-04-15T16:53:47.819Z,98267.34
2023-04-15T16:56:14.292Z,98273.25
2023-04-15T16:58:41.188Z,98276.63
2023-04-15T17:01:07.829Z,98273.91
2023-04-15T17:03:34.692Z,98281.94
2023-04-15T17:06:01.632Z,98283.91
2023-04-15T17:08:28.593Z,98286.59
2023-04-15T17:10:55.275Z,98288.78
2023-04-15T17:13:25.167Z,98299.09
2023-04-15T17:15:54.932Z,98296.13
2023-04-15T17:18:22.107Z,98293.31
2023-04-15T17:20:48.544Z,98288.78
2023-04-15T17:23:15.366Z,98303.53
2023-04-15T17:25:41.950Z,98304.44
2023-04-15T17:28:08.990Z,98309.81
2023-04-15T17:30:35.452Z,98302.50
2023-04-15T17:33:02.435Z,98310.75
2023-04-15T17:35:54.010Z,98320.09
2023-04-15T17:38:21.427Z,98325.31
2023-04-15T17:40:48.727Z,98334.97
2023-04-15T17:43:15.991Z,98335.06
2023-04-15T17:45:42.776Z,98337.19
2023-04-15T17:48:09.754Z,98342.34
2023-04-15T17:50:39.428Z,98345.47
2023-04-15T17:53:07.104Z,98345.13
2023-04-15T17:55:33.600Z,98349.38
2023-04-15T17:58:00.412Z,98360.88
2023-04-15T18:00:27.273Z,98355.88
2023-04-15T18:02:55.867Z,98362.81
2023-04-15T18:05:22.865Z,98371.53
2023-04-15T18:07:49.797Z,98374.16
2023-04-15T18:10:16.847Z,98377.94
2023-04-15T18:12:44.626Z,98378.28
2023-04-15T18:15:11.670Z,98379.91
2023-04-15T18:17:38.403Z,98384.88
2023-04-15T18:20:05.604Z,98391.91
2023-04-15T18:22:32.508Z,98396.94
2023-04-15T18:24:59.182Z,98402.59
2023-04-15T18:27:26.811Z,98408.84
2023-04-15T18:29:54.787Z,98406.84
2023-04-15T18:32:21.782Z,98408.69
2023-04-15T18:34:50.548Z,98410.56
2023-04-15T18:37:17.387Z,98410.63
2023-04-15T18:39:46.039Z,98415.09
2023-04-15T18:42:13.083Z,98418.56
2023-04-15T18:44:40.641Z,98422.88
2023-04-15T18:47:07.618Z,98426.91
2023-04-15T18:49:38.018Z,98432.19
2023-04-15T18:52:05.223Z,98430.59
2023-04-15T18:54:35.525Z,98438.31
2023-04-15T18:57:02.115Z,98441.69
2023-04-15T18:59:31.980Z,98440.31
2023-04-15T19:01:59.955Z,98446.09
2023-04-15T19:04:31.007Z,98446.69
2023-04-15T19:07:00.899Z,98457.34
2023-04-15T19:09:30.147Z,98447.25
2023-04-15T19:11:57.757Z,98457.25
2023-04-15T19:14:24.522Z,98464.97
2023-04-15T19:16:51.849Z,98465.13
2023-04-15T19:19:18.972Z,98462.50
2023-04-15T19:21:46.811Z,98472.69
2023-04-15T19:24:13.998Z,98464.97
2023-04-15T19:26:41.455Z,98475.31
2023-04-15T19:29:08.037Z,98473.66
2023-04-15T19:31:36.083Z,98471.44
2023-04-15T19:34:03.643Z,98476.16
2023-04-15T19:36:31.638Z,98473.28
2023-04-15T19:38:58.758Z,98477.38
2023-04-15T19:41:25.961Z,98478.06
2023-04-15T19:43:52.679Z,98485.31
2023-04-15T19:46:19.631Z,98481.38
2023-04-15T19:48:48.407Z,98483.44
2023-04-15T19:51:16.432Z,98479.91
2023-04-15T19:53:43.530Z,98479.13
2023-04-15T19:56:10.740Z,98489.38
2023-04-15T19:58:37.756Z,98481.47
2023-04-15T20:01:04.799Z,98487.25
2023-04-15T20:03:31.824Z,98494.78
2023-04-15T20:05:58.939Z,98498.53
2023-04-15T20:08:26.637Z,98499.16
2023-04-15T20:10:53.755Z,98507.94
2023-04-15T20:13:21.005Z,98504.69
2023-04-15T20:15:48.686Z,98511.94
2023-04-15T20:18:15.558Z,98508.25
2023-04-15T20:20:42.481Z,98519.03
2023-04-15T20:23:10.104Z,98520.50
2023-04-15T20:25:37.707Z,98521.94
2023-04-15T20:28:04.615Z,98521.81
2023-04-15T20:30:32.051Z,98525.19
2023-04-15T20:32:59.066Z,98525.03
2023-04-15T20:35:25.881Z,98526.72
2023-04-15T20:37:54.648Z,98529.44
2023-04-15T20:40:24.360Z,98535.53
2023-04-15T20:42:55.269Z,98535.22
2023-04-15T20:45:23.014Z,98535.38
2023-04-15T20:47:51.044Z,98534.78
2023-04-15T20:50:21.061Z,98544.56
2023-04-15T20:52:47.632Z,98543.78
2023-04-15T20:55:14.249Z,98550.03
2023-04-15T20:57:40.793Z,98543.16
2023-04-15T21:00:11.420Z,98550.19
2023-04-15T21:02:38.040Z,98543.22
2023-04-15T21:05:05.281Z,98557.97
2023-04-15T21:07:32.195Z,98561.44
2023-04-15T21:09:58.785Z,98563.13
2023-04-15T21:12:25.820Z,98571.91
2023-04-15T21:14:52.401Z,98563.28
2023-04-15T21:17:19.196Z,98567.72
2023-04-15T21:19:46.071Z,98572.94
2023-04-15T21:22:12.709Z,98570.22
2023-04-15T21:24:39.269Z,98568.50
2023-04-15T21:27:05.708Z,98575.28
2023-04-15T21:29:32.119Z,98577.69
2023-04-15T21:31:58.636Z,98583.06
2023-04-15T21:34:30.226Z,98577.28
2023-04-15T21:36:56.911Z,98580.84
2023-04-15T21:39:24.640Z,98585.16
2023-04-15T21:41:54.249Z,98591.72
2023-04-15T21:44:20.708Z,98594.09
2023-04-15T21:46:47.284Z,98590.53
2023-04-15T21:49:13.752Z,98588.88
2023-04-15T21:51:40.234Z,98591.03
2023-04-15T21:54:06.694Z,98586.34
2023-04-15T21:56:33.286Z,98592.28
2023-04-15T21:59:00.401Z,98593.53
2023-04-15T22:01:27.458Z,98592.25
2023-04-15T22:03:54.254Z,98596.47
2023-04-15T22:06:20.927Z,98594.78
2023-04-15T22:08:56.022Z,98601.03
2023-04-15T22:11:23.696Z,98601.56
2023-04-15T22:13:50.155Z,98607.19
2023-04-15T22:16:16.607Z,98606.00
2023-04-15T22:18:43.159Z,98605.69
2023-04-15T22:21:09.917Z,98612.63
2023-04-15T22:23:39.328Z,98614.66
2023-04-15T22:26:05.875Z,98619.50
2023-04-15T22:28:32.255Z,98621.22
2023-04-15T22:30:59.222Z,98623.16
2023-04-15T22:33:25.638Z,98623.75
2023-04-15T22:35:54.496Z,98625.28
2023-04-15T22:38:20.936Z,98628.81
2023-04-15T22:40:47.471Z,98624.53
2023-04-15T22:43:13.900Z,98633.31
2023-04-15T22:45:40.420Z,98638.69
2023-04-15T22:48:06.956Z,98636.16
2023-04-15T22:50:33.378Z,98642.25
2023-04-15T22:52:59.818Z,98640.75
2023-04-15T22:55:26.276Z,98649.47
2023-04-15T22:57:53.104Z,98656.63
2023-04-15T23:00:19.800Z,98657.41
2023-04-15T23:02:46.303Z,98655.84
2023-04-15T23:05:13.597Z,98655.78
2023-04-15T23:07:40.243Z,98664.25
2023-04-15T23:10:06.718Z,98662.06
2023-04-15T23:12:33.198Z,98665.47
2023-04-15T23:14:59.686Z,98670.69
2023-04-15T23:17:26.168Z,98671.41
2023-04-15T23:19:54.284Z,98669.41
2023-04-15T23:22:20.799Z,98675.50
2023-04-15T23:24:47.310Z,98681.59
2023-04-15T23:27:13.818Z,98673.66
2023-04-15T23:29:40.416Z,98680.59
2023-04-15T23:32:06.825Z,98679.69
2023-04-15T23:34:34.586Z,98680.44
2023-04-15T23:37:01.159Z,98680.19
2023-04-15T23:39:27.980Z,98677.91
2023-04-15T23:41:54.512Z,98679.53
2023-04-15T23:44:21.398Z,98681.03
2023-04-15T23:46:48.138Z,98686.91
2023-04-15T23:49:14.608Z,98688.97
2023-04-15T23:51:44.513Z,98679.53
2023-04-15T23:54:11.426Z,98685.53
2023-04-15T23:56:37.843Z,98680.19
2023-04-15T23:59:04.330Z,98687.19
